Wetterdaten: Woche 15.03.10 - 21.03.10 (KW11)
Datum Zeit Temp. Innen Temp. Aussen UV X Diff Temp. Feuchte Inne Feuchte Auss Sonnenschein Luftdruck Regen ab 0,1 Wind Sonnenschein Windben
15.03.2010 00:00 12,7 C 5,5 C 0,0 UV-I 0,0 C 54 % 88 % 0 % 1022,5 hPa 0,0 l/m 3,4 km/h (1 Bft) 0,00 h 3,2 km/h (1 Bft)
15.03.2010 01:00 12,7 C 5,4 C 0,0 UV-I 0,0 C 53 % 87 % 0 % 1022,9 hPa 0,0 l/m 3,9 km/h (1 Bft) 0,00 h 3,9 km/h (1 Bft)
15.03.2010 02:00 12,7 C 5,2 C 0,0 UV-I 0,0 C 53 % 88 % 0 % 1022,9 hPa 0,0 l/m 6,3 km/h (2 Bft) 0,00 h 5,5 km/h (1 Bft)
15.03.2010 03:00 12,7 C 5,1 C 0,0 UV-I 0,0 C 53 % 88 % 0 % 1022,6 hPa 0,0 l/m 4,3 km/h (1 Bft) 0,00 h 4,6 km/h (1 Bft)
15.03.2010 04:00 12,7 C 4,8 C 0,0 UV-I 0,0 C 53 % 89 % 0 % 1022,6 hPa 0,0 l/m 2,4 km/h (1 Bft) 0,00 h 2,9 km/h (1 Bft)
15.03.2010 05:00 12,7 C 4,8 C 0,0 UV-I 0,0 C 53 % 90 % 0 % 1022,8 hPa 0,0 l/m 3,7 km/h (1 Bft) 0,00 h 3,1 km/h (1 Bft)
15.03.2010 06:00 12,7 C 4,8 C 0,0 UV-I 0,0 C 54 % 91 % 0 % 1022,9 hPa 0,0 l/m 4,1 km/h (1 Bft) 0,00 h 4,0 km/h (1 Bft)
15.03.2010 07:00 12,7 C 4,9 C 0,0 UV-I 0,0 C 54 % 91 % 0 % 1023,1 hPa 0,0 l/m 3,3 km/h (1 Bft) 0,00 h 3,6 km/h (1 Bft)
15.03.2010 08:00 12,7 C 5,2 C 0,1 UV-I 0,2 C 54 % 91 % 5 % 1023,4 hPa 0,0 l/m 4,1 km/h (1 Bft) 0,00 h 5,0 km/h (1 Bft)
15.03.2010 09:00 12,8 C 5,8 C 0,6 UV-I 0,8 C 54 % 90 % 21 % 1023,8 hPa 0,0 l/m 4,6 km/h (1 Bft) 0,00 h 4,4 km/h (1 Bft)
15.03.2010 10:00 13,1 C 6,9 C 2,9 UV-I 3,1 C 54 % 87 % 75 % 1023,9 hPa 0,0 l/m 6,8 km/h (2 Bft) 0,30 h 6,9 km/h (2 Bft)
15.03.2010 11:00 13,5 C 8,6 C 4,2 UV-I 3,9 C 53 % 80 % 92 % 1023,4 hPa 0,0 l/m 9,8 km/h (2 Bft) 0,53 h 8,3 km/h (2 Bft)
15.03.2010 12:00 14,3 C 9,6 C 3,0 UV-I 2,0 C 51 % 74 % 56 % 1022,9 hPa 0,0 l/m 12,7 km/h (3 Bft) 0,15 h 9,9 km/h (2 Bft)
15.03.2010 13:00 14,5 C 10,1 C 1,0 UV-I 0,8 C 51 % 73 % 21 % 1022,0 hPa 0,0 l/m 11,5 km/h (2 Bft) 0,00 h 10,0 km/h (2 Bft)
15.03.2010 14:00 14,5 C 10,3 C 0,6 UV-I 0,3 C 50 % 71 % 8 % 1021,1 hPa 0,0 l/m 13,0 km/h (3 Bft) 0,00 h 12,2 km/h (2 Bft)
15.03.2010 15:00 14,2 C 9,6 C 0,1 UV-I 0,0 C 51 % 76 % 0 % 1021,0 hPa 2,2 l/m 10,5 km/h (2 Bft) 0,00 h 9,9 km/h (2 Bft)
15.03.2010 16:00 13,7 C 8,1 C 0,0 UV-I 0,0 C 54 % 86 % 0 % 1020,6 hPa 0,7 l/m 6,3 km/h (2 Bft) 0,00 h 5,6 km/h (1 Bft)
15.03.2010 17:00 13,6 C 8,0 C 0,0 UV-I 0,0 C 54 % 84 % 0 % 1020,1 hPa 0,0 l/m 9,0 km/h (2 Bft) 0,00 h 8,5 km/h (2 Bft)
15.03.2010 18:00 13,5 C 7,8 C 0,0 UV-I 0,0 C 54 % 81 % 0 % 1019,6 hPa 0,1 l/m 8,5 km/h (2 Bft) 0,00 h 8,9 km/h (2 Bft)
15.03.2010 19:00 13,4 C 7,2 C 0,0 UV-I 0,0 C 54 % 86 % 0 % 1019,9 hPa 1,3 l/m 9,9 km/h (2 Bft) 0,00 h 7,7 km/h (2 Bft)
15.03.2010 20:00 13,2 C 6,4 C 0,0 UV-I 0,0 C 55 % 90 % 0 % 1020,0 hPa 0,9 l/m 7,9 km/h (2 Bft) 0,00 h 6,4 km/h (2 Bft)
15.03.2010 21:00 13,2 C 6,1 C 0,0 UV-I 0,0 C 56 % 91 % 0 % 1019,8 hPa 1,6 l/m 7,5 km/h (2 Bft) 0,00 h 7,6 km/h (2 Bft)
15.03.2010 22:00 13,1 C 5,8 C 0,0 UV-I 0,0 C 56 % 91 % 0 % 1020,1 hPa 1,1 l/m 10,1 km/h (2 Bft) 0,00 h 9,5 km/h (2 Bft)
15.03.2010 23:00 13,0 C 5,6 C 0,0 UV-I 0,0 C 56 % 92 % 0 % 1020,0 hPa 0,8 l/m 7,5 km/h (2 Bft) 0,00 h 5,8 km/h (2 Bft)
16.03.2010 00:00 13,0 C 5,8 C 0,0 UV-I 0,0 C 57 % 93 % 0 % 1019,9 hPa 0,3 l/m 6,7 km/h (2 Bft) 0,00 h 5,2 km/h (1 Bft)
16.03.2010 01:00 13,0 C 5,9 C 0,0 UV-I 0,0 C 57 % 94 % 0 % 1019,9 hPa 1,0 l/m 6,8 km/h (2 Bft) 0,00 h 6,9 km/h (2 Bft)
16.03.2010 02:00 13,0 C 5,9 C 0,0 UV-I 0,0 C 57 % 93 % 0 % 1020,1 hPa 0,1 l/m 8,6 km/h (2 Bft) 0,00 h 7,5 km/h (2 Bft)
16.03.2010 03:00 13,0 C 5,8 C 0,0 UV-I 0,0 C 57 % 93 % 0 % 1020,2 hPa 0,0 l/m 6,1 km/h (2 Bft) 0,00 h 5,0 km/h (1 Bft)
16.03.2010 04:00 13,0 C 5,7 C 0,0 UV-I 0,0 C 57 % 93 % 0 % 1020,5 hPa 0,1 l/m 4,6 km/h (1 Bft) 0,00 h 4,1 km/h (1 Bft)
16.03.2010 05:00 13,0 C 5,7 C 0,0 UV-I 0,0 C 57 % 93 % 0 % 1021,1 hPa 0,0 l/m 4,6 km/h (1 Bft) 0,00 h 4,1 km/h (1 Bft)
16.03.2010 06:00 12,9 C 5,7 C 0,0 UV-I 0,0 C 57 % 93 % 0 % 1021,7 hPa 0,0 l/m 2,8 km/h (1 Bft) 0,00 h 2,6 km/h (1 Bft)
16.03.2010 07:00 13,0 C 5,5 C 0,0 UV-I 0,0 C 57 % 93 % 0 % 1022,4 hPa 0,0 l/m 3,8 km/h (1 Bft) 0,00 h 3,1 km/h (1 Bft)
16.03.2010 08:00 13,2 C 5,4 C 0,1 UV-I 0,1 C 56 % 92 % 4 % 1023,3 hPa 0,0 l/m 4,6 km/h (1 Bft) 0,00 h 3,9 km/h (1 Bft)
16.03.2010 09:00 13,2 C 5,6 C 0,2 UV-I 0,5 C 55 % 90 % 15 % 1024,4 hPa 0,0 l/m 3,9 km/h (1 Bft) 0,00 h 3,6 km/h (1 Bft)
16.03.2010 10:00 13,4 C 6,2 C 1,0 UV-I 1,3 C 55 % 89 % 37 % 1025,2 hPa 0,0 l/m 5,0 km/h (1 Bft) 0,00 h 4,8 km/h (1 Bft)
16.03.2010 11:00 13,5 C 6,4 C 0,3 UV-I 0,5 C 54 % 86 % 15 % 1025,9 hPa 0,0 l/m 4,4 km/h (1 Bft) 0,00 h 4,0 km/h (1 Bft)
16.03.2010 12:00 13,5 C 6,4 C 0,7 UV-I 0,5 C 54 % 86 % 15 % 1026,6 hPa 0,0 l/m 3,6 km/h (1 Bft) 0,03 h 3,6 km/h (1 Bft)
16.03.2010 13:00 13,9 C 7,3 C 2,9 UV-I 2,4 C 54 % 82 % 67 % 1026,9 hPa 0,0 l/m 7,9 km/h (2 Bft) 0,25 h 6,5 km/h (2 Bft)
16.03.2010 14:00 14,9 C 8,4 C 4,5 UV-I 3,9 C 51 % 78 % 81 % 1027,5 hPa 0,0 l/m 7,1 km/h (2 Bft) 0,57 h 7,3 km/h (2 Bft)
16.03.2010 15:00 15,2 C 9,0 C 1,6 UV-I 1,4 C 50 % 75 % 41 % 1027,2 hPa 0,0 l/m 6,6 km/h (2 Bft) 0,07 h 6,0 km/h (2 Bft)
16.03.2010 16:00 14,7 C 8,6 C 0,2 UV-I 0,0 C 50 % 75 % 1 % 1026,7 hPa 0,0 l/m 3,7 km/h (1 Bft) 0,00 h 3,1 km/h (1 Bft)
16.03.2010 17:00 14,1 C 8,0 C 0,0 UV-I 0,0 C 51 % 76 % 0 % 1026,6 hPa 0,0 l/m 2,4 km/h (1 Bft) 0,00 h 2,2 km/h (1 Bft)
16.03.2010 18:00 13,8 C 7,5 C 0,0 UV-I 0,0 C 52 % 78 % 0 % 1026,8 hPa 0,0 l/m 0,2 km/h (0 Bft) 0,00 h 0,4 km/h (0 Bft)
16.03.2010 19:00 13,6 C 6,7 C 0,0 UV-I 0,0 C 52 % 81 % 0 % 1026,7 hPa 0,0 l/m 0,0 km/h (0 Bft) 0,00 h 0,0 km/h (0 Bft)
16.03.2010 20:00 13,4 C 5,1 C 0,0 UV-I 0,0 C 53 % 84 % 0 % 1026,5 hPa 0,0 l/m 0,0 km/h (0 Bft) 0,00 h 0,0 km/h (0 Bft)
16.03.2010 21:00 13,3 C 4,3 C 0,0 UV-I 0,0 C 53 % 88 % 0 % 1026,6 hPa 0,0 l/m 0,9 km/h (0 Bft) 0,00 h 1,1 km/h (0 Bft)
16.03.2010 22:00 13,3 C 4,5 C 0,0 UV-I 0,2 C 53 % 90 % 0 % 1027,0 hPa 0,0 l/m 2,9 km/h (1 Bft) 0,00 h 2,1 km/h (1 Bft)
16.03.2010 23:00 13,4 C 4,7 C 0,0 UV-I 0,0 C 53 % 90 % 0 % 1026,5 hPa 0,0 l/m 1,7 km/h (1 Bft) 0,00 h 1,2 km/h (1 Bft)
17.03.2010 00:00 13,4 C 4,7 C 0,0 UV-I 0,0 C 53 % 90 % 0 % 1026,2 hPa 0,0 l/m 1,2 km/h (1 Bft) 0,00 h 1,5 km/h (1 Bft)
17.03.2010 01:00 13,4 C 4,8 C 0,0 UV-I 0,0 C 53 % 91 % 0 % 1025,9 hPa 0,0 l/m 1,6 km/h (1 Bft) 0,00 h 1,7 km/h (1 Bft)
17.03.2010 02:00 13,3 C 4,8 C 0,0 UV-I 0,0 C 53 % 91 % 0 % 1025,5 hPa 0,0 l/m 1,4 km/h (1 Bft) 0,00 h 1,4 km/h (1 Bft)
17.03.2010 03:00 13,2 C 4,4 C 0,0 UV-I 0,0 C 53 % 91 % 0 % 1025,3 hPa 0,0 l/m 2,0 km/h (1 Bft) 0,00 h 2,2 km/h (1 Bft)
17.03.2010 04:00 13,2 C 3,9 C 0,0 UV-I 0,0 C 53 % 91 % 0 % 1024,9 hPa 0,0 l/m 3,8 km/h (1 Bft) 0,00 h 3,6 km/h (1 Bft)
17.03.2010 05:00 13,2 C 3,5 C 0,0 UV-I 0,0 C 53 % 91 % 0 % 1024,3 hPa 0,0 l/m 1,6 km/h (1 Bft) 0,00 h 1,3 km/h (1 Bft)
17.03.2010 06:00 13,2 C 3,9 C 0,0 UV-I 0,0 C 52 % 88 % 0 % 1024,3 hPa 0,0 l/m 2,1 km/h (1 Bft) 0,00 h 2,9 km/h (1 Bft)
17.03.2010 07:00 13,1 C 4,4 C 0,0 UV-I 0,0 C 51 % 85 % 1 % 1024,3 hPa 0,0 l/m 1,7 km/h (1 Bft) 0,00 h 2,4 km/h (1 Bft)
17.03.2010 08:00 13,2 C 5,4 C 0,0 UV-I 0,8 C 51 % 82 % 22 % 1024,4 hPa 0,0 l/m 4,7 km/h (1 Bft) 0,00 h 4,4 km/h (1 Bft)
17.03.2010 09:00 13,2 C 6,6 C 0,8 UV-I 1,7 C 50 % 77 % 47 % 1024,8 hPa 0,0 l/m 6,9 km/h (2 Bft) 0,13 h 7,3 km/h (2 Bft)
17.03.2010 10:00 13,3 C 8,8 C 3,8 UV-I 5,2 C 50 % 71 % 100 % 1024,6 hPa 0,0 l/m 7,9 km/h (2 Bft) 0,93 h 6,7 km/h (2 Bft)
17.03.2010 11:00 13,7 C 11,3 C 7,3 UV-I 6,2 C 49 % 62 % 100 % 1024,6 hPa 0,0 l/m 10,3 km/h (2 Bft) 0,73 h 10,3 km/h (2 Bft)
17.03.2010 12:00 14,8 C 13,2 C 7,4 UV-I 5,3 C 48 % 56 % 100 % 1024,5 hPa 0,0 l/m 10,1 km/h (2 Bft) 0,70 h 8,7 km/h (2 Bft)
17.03.2010 13:00 16,0 C 14,2 C 5,8 UV-I 3,8 C 45 % 51 % 99 % 1025,4 hPa 0,0 l/m 11,6 km/h (2 Bft) 0,90 h 9,8 km/h (2 Bft)
17.03.2010 14:00 16,6 C 14,8 C 5,1 UV-I 3,4 C 43 % 50 % 95 % 1025,6 hPa 0,0 l/m 10,3 km/h (2 Bft) 1,00 h 7,7 km/h (2 Bft)
17.03.2010 15:00 16,8 C 15,0 C 3,0 UV-I 1,9 C 43 % 49 % 54 % 1024,8 hPa 0,0 l/m 10,4 km/h (2 Bft) 0,00 h 8,7 km/h (2 Bft)
17.03.2010 16:00 16,8 C 14,7 C 1,3 UV-I 0,9 C 43 % 50 % 26 % 1024,5 hPa 0,0 l/m 7,9 km/h (2 Bft) 0,00 h 6,6 km/h (2 Bft)
17.03.2010 17:00 16,5 C 13,9 C 0,3 UV-I 0,0 C 43 % 52 % 0 % 1023,5 hPa 0,0 l/m 4,8 km/h (1 Bft) 0,00 h 3,6 km/h (1 Bft)
17.03.2010 18:00 16,0 C 12,8 C 0,0 UV-I 0,0 C 44 % 55 % 0 % 1023,2 hPa 0,0 l/m 0,4 km/h (0 Bft) 0,00 h 0,8 km/h (0 Bft)
17.03.2010 19:00 15,7 C 11,3 C 0,0 UV-I 0,0 C 45 % 59 % 0 % 1023,2 hPa 0,0 l/m 0,6 km/h (0 Bft) 0,00 h 0,6 km/h (0 Bft)
17.03.2010 20:00 15,4 C 10,7 C 0,0 UV-I 0,0 C 45 % 60 % 0 % 1023,1 hPa 0,0 l/m 2,3 km/h (1 Bft) 0,00 h 1,6 km/h (1 Bft)
17.03.2010 21:00 15,2 C 9,5 C 0,0 UV-I 0,0 C 46 % 66 % 0 % 1023,1 hPa 0,0 l/m 0,2 km/h (0 Bft) 0,00 h 0,2 km/h (0 Bft)
17.03.2010 22:00 14,9 C 8,1 C 0,0 UV-I 0,0 C 47 % 72 % 0 % 1023,0 hPa 0,0 l/m 0,0 km/h (0 Bft) 0,00 h 0,0 km/h (0 Bft)
17.03.2010 23:00 14,7 C 6,9 C 0,0 UV-I 0,0 C 48 % 76 % 0 % 1023,0 hPa 0,0 l/m 0,1 km/h (0 Bft) 0,00 h 0,3 km/h (0 Bft)
18.03.2010 00:00 14,6 C 6,0 C 0,0 UV-I 0,0 C 48 % 78 % 0 % 1023,0 hPa 0,0 l/m 0,1 km/h (0 Bft) 0,00 h 0,1 km/h (0 Bft)
18.03.2010 01:00 14,5 C 5,6 C 0,0 UV-I 0,0 C 48 % 79 % 0 % 1023,0 hPa 0,0 l/m 0,0 km/h (0 Bft) 0,00 h 0,0 km/h (0 Bft)
18.03.2010 02:00 14,4 C 5,6 C 0,0 UV-I 0,0 C 48 % 79 % 0 % 1022,9 hPa 0,0 l/m 0,1 km/h (0 Bft) 0,00 h 0,1 km/h (0 Bft)
18.03.2010 03:00 14,3 C 5,5 C 0,0 UV-I 0,0 C 48 % 79 % 0 % 1022,6 hPa 0,0 l/m 0,3 km/h (0 Bft) 0,00 h 0,4 km/h (0 Bft)
18.03.2010 04:00 14,2 C 4,8 C 0,0 UV-I 0,0 C 49 % 80 % 0 % 1022,6 hPa 0,0 l/m 0,0 km/h (0 Bft) 0,00 h 0,0 km/h (0 Bft)
18.03.2010 05:00 14,0 C 3,8 C 0,0 UV-I 0,0 C 49 % 83 % 0 % 1022,8 hPa 0,0 l/m 0,4 km/h (0 Bft) 0,00 h 0,5 km/h (0 Bft)
18.03.2010 06:00 13,9 C 3,4 C 0,0 UV-I 0,0 C 49 % 84 % 0 % 1022,8 hPa 0,0 l/m 4,2 km/h (1 Bft) 0,00 h 3,7 km/h (1 Bft)
18.03.2010 07:00 13,9 C 3,6 C 0,0 UV-I 0,1 C 49 % 84 % 3 % 1022,7 hPa 0,0 l/m 3,4 km/h (1 Bft) 0,00 h 3,0 km/h (1 Bft)
18.03.2010 08:00 13,9 C 4,5 C 0,4 UV-I 1,1 C 49 % 84 % 32 % 1022,6 hPa 0,0 l/m 5,6 km/h (1 Bft) 0,00 h 5,3 km/h (1 Bft)
18.03.2010 09:00 14,0 C 6,6 C 1,4 UV-I 6,1 C 49 % 81 % 96 % 1022,7 hPa 0,0 l/m 7,3 km/h (2 Bft) 0,70 h 6,8 km/h (2 Bft)
18.03.2010 10:00 14,2 C 10,4 C 4,9 UV-I 6,9 C 49 % 71 % 100 % 1022,5 hPa 0,0 l/m 9,5 km/h (2 Bft) 0,63 h 8,5 km/h (2 Bft)
18.03.2010 11:00 14,5 C 14,0 C 7,9 UV-I 6,4 C 49 % 61 % 100 % 1022,1 hPa 0,0 l/m 7,5 km/h (2 Bft) 0,58 h 7,1 km/h (2 Bft)
18.03.2010 12:00 15,6 C 17,5 C 9,7 UV-I 4,4 C 48 % 50 % 100 % 1021,8 hPa 0,0 l/m 12,9 km/h (3 Bft) 0,97 h 10,2 km/h (2 Bft)
18.03.2010 13:00 17,2 C 19,3 C 8,6 UV-I 3,8 C 45 % 44 % 99 % 1023,2 hPa 0,0 l/m 11,2 km/h (2 Bft) 0,90 h 8,4 km/h (2 Bft)
18.03.2010 14:00 18,1 C 20,3 C 8,7 UV-I 3,5 C 43 % 39 % 93 % 1023,7 hPa 0,0 l/m 12,1 km/h (2 Bft) 0,77 h 10,8 km/h (2 Bft)
18.03.2010 15:00 18,3 C 20,4 C 3,8 UV-I 1,8 C 41 % 37 % 52 % 1021,8 hPa 0,0 l/m 8,1 km/h (2 Bft) 0,00 h 6,9 km/h (2 Bft)
18.03.2010 16:00 18,0 C 19,4 C 0,9 UV-I 0,1 C 41 % 38 % 3 % 1019,7 hPa 0,0 l/m 7,5 km/h (2 Bft) 0,00 h 5,1 km/h (1 Bft)
18.03.2010 17:00 17,7 C 18,4 C 0,1 UV-I 0,0 C 42 % 42 % 0 % 1018,4 hPa 0,0 l/m 6,0 km/h (2 Bft) 0,00 h 4,7 km/h (1 Bft)
18.03.2010 18:00 17,3 C 16,9 C 0,0 UV-I 0,0 C 43 % 49 % 0 % 1017,5 hPa 0,0 l/m 2,8 km/h (1 Bft) 0,00 h 2,7 km/h (1 Bft)
18.03.2010 19:00 17,1 C 15,5 C 0,0 UV-I 0,0 C 44 % 50 % 0 % 1017,2 hPa 0,0 l/m 7,2 km/h (2 Bft) 0,00 h 5,9 km/h (2 Bft)
18.03.2010 20:00 16,9 C 14,5 C 0,0 UV-I 0,0 C 44 % 51 % 0 % 1016,8 hPa 0,0 l/m 9,5 km/h (2 Bft) 0,00 h 7,4 km/h (2 Bft)
18.03.2010 21:00 16,8 C 13,2 C 0,0 UV-I 0,0 C 44 % 54 % 0 % 1016,4 hPa 0,0 l/m 9,5 km/h (2 Bft) 0,00 h 7,6 km/h (2 Bft)
18.03.2010 22:00 16,7 C 12,3 C 0,0 UV-I 0,0 C 45 % 57 % 0 % 1016,1 hPa 0,0 l/m 7,2 km/h (2 Bft) 0,00 h 4,9 km/h (1 Bft)
18.03.2010 23:00 16,6 C 11,4 C 0,0 UV-I 0,0 C 45 % 59 % 0 % 1016,0 hPa 0,0 l/m 4,8 km/h (1 Bft) 0,00 h 3,8 km/h (1 Bft)
19.03.2010 00:00 16,5 C 10,5 C 0,0 UV-I 0,0 C 45 % 62 % 0 % 1015,8 hPa 0,0 l/m 3,3 km/h (1 Bft) 0,00 h 3,2 km/h (1 Bft)
19.03.2010 01:00 16,4 C 10,0 C 0,0 UV-I 0,1 C 46 % 64 % 0 % 1015,7 hPa 0,0 l/m 0,2 km/h (0 Bft) 0,00 h 0,2 km/h (0 Bft)
19.03.2010 02:00 16,4 C 11,6 C 0,0 UV-I 0,7 C 45 % 56 % 0 % 1015,8 hPa 0,0 l/m 5,6 km/h (1 Bft) 0,00 h 6,0 km/h (2 Bft)
19.03.2010 03:00 16,4 C 13,2 C 0,0 UV-I 0,1 C 44 % 51 % 0 % 1015,6 hPa 0,0 l/m 9,5 km/h (2 Bft) 0,00 h 6,9 km/h (2 Bft)
19.03.2010 04:00 16,4 C 13,4 C 0,0 UV-I 0,0 C 43 % 51 % 0 % 1015,9 hPa 0,0 l/m 8,8 km/h (2 Bft) 0,00 h 7,8 km/h (2 Bft)
19.03.2010 05:00 16,4 C 13,2 C 0,0 UV-I 0,0 C 44 % 53 % 0 % 1016,1 hPa 0,0 l/m 6,7 km/h (2 Bft) 0,00 h 5,3 km/h (1 Bft)
19.03.2010 06:00 16,4 C 13,1 C 0,0 UV-I 0,0 C 44 % 56 % 0 % 1016,2 hPa 0,0 l/m 8,1 km/h (2 Bft) 0,00 h 7,4 km/h (2 Bft)
19.03.2010 07:00 16,4 C 13,1 C 0,0 UV-I 0,0 C 45 % 59 % 0 % 1016,5 hPa 0,0 l/m 9,4 km/h (2 Bft) 0,00 h 8,5 km/h (2 Bft)
19.03.2010 08:00 16,5 C 12,6 C 0,0 UV-I 0,0 C 47 % 69 % 0 % 1017,0 hPa 0,0 l/m 10,7 km/h (2 Bft) 0,00 h 10,0 km/h (2 Bft)
19.03.2010 09:00 16,6 C 12,7 C 0,6 UV-I 0,7 C 49 % 70 % 20 % 1017,1 hPa 0,0 l/m 7,4 km/h (2 Bft) 0,00 h 6,3 km/h (2 Bft)
19.03.2010 10:00 16,8 C 13,6 C 0,3 UV-I 0,7 C 49 % 67 % 20 % 1017,4 hPa 0,0 l/m 8,1 km/h (2 Bft) 0,00 h 7,9 km/h (2 Bft)
19.03.2010 11:00 17,0 C 14,6 C 2,4 UV-I 1,8 C 49 % 65 % 49 % 1017,5 hPa 0,0 l/m 10,6 km/h (2 Bft) 0,10 h 11,2 km/h (2 Bft)
19.03.2010 12:00 17,6 C 16,9 C 8,5 UV-I 4,7 C 49 % 59 % 99 % 1017,4 hPa 0,0 l/m 14,5 km/h (3 Bft) 0,40 h 11,8 km/h (2 Bft)
19.03.2010 13:00 18,3 C 17,6 C 5,0 UV-I 2,9 C 49 % 58 % 76 % 1017,6 hPa 0,0 l/m 12,6 km/h (3 Bft) 0,20 h 9,0 km/h (2 Bft)
19.03.2010 14:00 18,8 C 18,5 C 4,6 UV-I 2,8 C 49 % 58 % 76 % 1017,5 hPa 0,0 l/m 11,9 km/h (2 Bft) 0,17 h 9,3 km/h (2 Bft)
19.03.2010 15:00 19,0 C 18,8 C 1,8 UV-I 1,6 C 50 % 59 % 44 % 1017,2 hPa 0,0 l/m 11,2 km/h (2 Bft) 0,13 h 9,1 km/h (2 Bft)
19.03.2010 16:00 18,6 C 17,9 C 0,3 UV-I 0,0 C 52 % 63 % 0 % 1016,2 hPa 0,0 l/m 13,2 km/h (3 Bft) 0,00 h 11,1 km/h (2 Bft)
19.03.2010 17:00 18,3 C 17,0 C 0,0 UV-I 0,0 C 53 % 66 % 0 % 1015,3 hPa 0,0 l/m 10,9 km/h (2 Bft) 0,00 h 9,1 km/h (2 Bft)
19.03.2010 18:00 18,1 C 16,5 C 0,0 UV-I 0,0 C 53 % 67 % 0 % 1014,8 hPa 0,0 l/m 7,9 km/h (2 Bft) 0,00 h 6,2 km/h (2 Bft)
19.03.2010 19:00 17,9 C 15,9 C 0,0 UV-I 0,0 C 53 % 68 % 0 % 1014,6 hPa 0,0 l/m 2,9 km/h (1 Bft) 0,00 h 2,7 km/h (1 Bft)
19.03.2010 20:00 17,7 C 15,3 C 0,0 UV-I 0,0 C 53 % 71 % 0 % 1014,1 hPa 0,0 l/m 4,0 km/h (1 Bft) 0,00 h 3,5 km/h (1 Bft)
19.03.2010 21:00 17,6 C 14,6 C 0,0 UV-I 0,0 C 53 % 73 % 0 % 1013,2 hPa 0,0 l/m 2,6 km/h (1 Bft) 0,00 h 1,8 km/h (1 Bft)
19.03.2010 22:00 17,6 C 14,4 C 0,0 UV-I 0,0 C 54 % 72 % 0 % 1012,6 hPa 0,0 l/m 4,1 km/h (1 Bft) 0,00 h 3,9 km/h (1 Bft)
19.03.2010 23:00 17,6 C 14,0 C 0,0 UV-I 0,0 C 54 % 75 % 0 % 1012,4 hPa 0,0 l/m 3,2 km/h (1 Bft) 0,00 h 2,2 km/h (1 Bft)
20.03.2010 00:00 17,5 C 13,4 C 0,0 UV-I 0,0 C 54 % 78 % 0 % 1011,8 hPa 0,0 l/m 0,3 km/h (0 Bft) 0,00 h 0,5 km/h (0 Bft)
20.03.2010 01:00 17,5 C 12,8 C 0,0 UV-I 0,0 C 54 % 82 % 0 % 1011,5 hPa 0,5 l/m 1,8 km/h (1 Bft) 0,00 h 2,1 km/h (1 Bft)
20.03.2010 02:00 17,5 C 12,5 C 0,0 UV-I 0,0 C 55 % 86 % 0 % 1010,5 hPa 0,6 l/m 4,4 km/h (1 Bft) 0,00 h 4,1 km/h (1 Bft)
20.03.2010 03:00 17,4 C 12,3 C 0,0 UV-I 0,0 C 56 % 89 % 0 % 1009,8 hPa 0,3 l/m 6,1 km/h (2 Bft) 0,00 h 5,5 km/h (1 Bft)
20.03.2010 04:00 17,3 C 12,6 C 0,0 UV-I 0,0 C 58 % 89 % 0 % 1009,3 hPa 0,0 l/m 7,8 km/h (2 Bft) 0,00 h 6,9 km/h (2 Bft)
20.03.2010 05:00 17,2 C 13,0 C 0,0 UV-I 0,0 C 59 % 90 % 0 % 1009,2 hPa 0,1 l/m 9,2 km/h (2 Bft) 0,00 h 7,5 km/h (2 Bft)
20.03.2010 06:00 17,2 C 12,8 C 0,0 UV-I 0,0 C 61 % 92 % 0 % 1009,8 hPa 0,2 l/m 7,9 km/h (2 Bft) 0,00 h 6,6 km/h (2 Bft)
20.03.2010 07:00 17,3 C 13,0 C 0,0 UV-I 0,0 C 62 % 93 % 0 % 1009,9 hPa 0,0 l/m 6,4 km/h (2 Bft) 0,00 h 5,5 km/h (1 Bft)
20.03.2010 08:00 17,2 C 13,3 C 0,0 UV-I 0,0 C 62 % 90 % 0 % 1010,1 hPa 0,2 l/m 9,1 km/h (2 Bft) 0,00 h 7,3 km/h (2 Bft)
20.03.2010 09:00 17,4 C 13,5 C 0,5 UV-I 0,1 C 62 % 91 % 4 % 1010,2 hPa 0,0 l/m 6,8 km/h (2 Bft) 0,00 h 6,2 km/h (2 Bft)
20.03.2010 10:00 17,6 C 14,2 C 0,5 UV-I 0,2 C 62 % 89 % 7 % 1010,4 hPa 0,0 l/m 11,8 km/h (2 Bft) 0,00 h 11,0 km/h (2 Bft)
20.03.2010 11:00 17,8 C 14,9 C 1,5 UV-I 0,9 C 63 % 86 % 26 % 1010,3 hPa 0,0 l/m 13,3 km/h (3 Bft) 0,00 h 11,4 km/h (2 Bft)
20.03.2010 12:00 18,0 C 15,8 C 1,2 UV-I 0,7 C 62 % 80 % 21 % 1010,2 hPa 0,0 l/m 13,1 km/h (3 Bft) 0,00 h 11,4 km/h (2 Bft)
20.03.2010 13:00 18,3 C 16,6 C 4,1 UV-I 2,3 C 61 % 74 % 57 % 1010,3 hPa 0,0 l/m 11,8 km/h (2 Bft) 0,40 h 10,6 km/h (2 Bft)
20.03.2010 14:00 19,0 C 18,1 C 2,9 UV-I 2,0 C 58 % 67 % 54 % 1010,5 hPa 0,0 l/m 10,3 km/h (2 Bft) 0,17 h 8,1 km/h (2 Bft)
20.03.2010 15:00 18,8 C 18,2 C 0,6 UV-I 0,3 C 57 % 66 % 9 % 1009,1 hPa 0,0 l/m 10,8 km/h (2 Bft) 0,00 h 10,7 km/h (2 Bft)
20.03.2010 16:00 18,9 C 18,0 C 1,4 UV-I 0,7 C 57 % 67 % 19 % 1008,8 hPa 0,0 l/m 15,1 km/h (3 Bft) 0,00 h 14,0 km/h (3 Bft)
20.03.2010 17:00 18,9 C 17,1 C 0,4 UV-I 0,2 C 57 % 69 % 7 % 1008,9 hPa 0,0 l/m 13,9 km/h (3 Bft) 0,00 h 11,6 km/h (2 Bft)
20.03.2010 18:00 18,5 C 16,1 C 0,0 UV-I 0,0 C 58 % 72 % 0 % 1008,9 hPa 0,0 l/m 9,1 km/h (2 Bft) 0,00 h 7,7 km/h (2 Bft)
20.03.2010 19:00 18,2 C 15,6 C 0,0 UV-I 0,0 C 58 % 75 % 0 % 1008,5 hPa 0,0 l/m 6,7 km/h (2 Bft) 0,00 h 6,1 km/h (2 Bft)
20.03.2010 20:00 18,1 C 15,1 C 0,0 UV-I 0,0 C 59 % 77 % 0 % 1008,1 hPa 0,0 l/m 7,7 km/h (2 Bft) 0,00 h 8,6 km/h (2 Bft)
20.03.2010 21:00 18,0 C 14,8 C 0,0 UV-I 0,0 C 59 % 79 % 0 % 1008,0 hPa 0,0 l/m 8,9 km/h (2 Bft) 0,00 h 8,7 km/h (2 Bft)
20.03.2010 22:00 17,9 C 14,8 C 0,0 UV-I 0,0 C 60 % 80 % 0 % 1007,7 hPa 0,0 l/m 9,8 km/h (2 Bft) 0,00 h 7,8 km/h (2 Bft)
20.03.2010 23:00 17,9 C 14,9 C 0,0 UV-I 0,0 C 60 % 80 % 0 % 1007,6 hPa 0,0 l/m 8,8 km/h (2 Bft) 0,00 h 6,4 km/h (2 Bft)
21.03.2010 00:00 17,9 C 15,1 C 0,0 UV-I 0,0 C 61 % 80 % 0 % 1007,3 hPa 0,0 l/m 9,7 km/h (2 Bft) 0,00 h 8,8 km/h (2 Bft)
21.03.2010 01:00 17,9 C 15,1 C 0,0 UV-I 0,0 C 60 % 79 % 0 % 1006,8 hPa 0,0 l/m 8,9 km/h (2 Bft) 0,00 h 8,6 km/h (2 Bft)
21.03.2010 02:00 17,8 C 15,1 C 0,0 UV-I 0,0 C 60 % 77 % 0 % 1006,5 hPa 0,0 l/m 11,6 km/h (2 Bft) 0,00 h 10,0 km/h (2 Bft)
21.03.2010 03:00 17,8 C 14,5 C 0,0 UV-I 0,0 C 61 % 82 % 0 % 1006,2 hPa 1,0 l/m 9,0 km/h (2 Bft) 0,00 h 7,3 km/h (2 Bft)
21.03.2010 04:00 17,7 C 13,1 C 0,0 UV-I 0,0 C 61 % 87 % 0 % 1006,3 hPa 5,4 l/m 4,5 km/h (1 Bft) 0,00 h 3,4 km/h (1 Bft)
21.03.2010 05:00 17,5 C 12,3 C 0,0 UV-I 0,0 C 62 % 90 % 0 % 1006,7 hPa 0,6 l/m 0,1 km/h (0 Bft) 0,00 h 0,2 km/h (0 Bft)
21.03.2010 06:00 17,5 C 11,9 C 0,0 UV-I 0,0 C 62 % 92 % 0 % 1007,2 hPa 0,0 l/m 1,2 km/h (1 Bft) 0,00 h 1,5 km/h (1 Bft)
21.03.2010 07:00 17,3 C 11,3 C 0,0 UV-I 0,0 C 62 % 90 % 0 % 1008,2 hPa 0,0 l/m 5,9 km/h (2 Bft) 0,00 h 5,4 km/h (1 Bft)
21.03.2010 08:00 17,2 C 10,7 C 0,1 UV-I 0,0 C 61 % 89 % 1 % 1009,3 hPa 0,0 l/m 7,1 km/h (2 Bft) 0,00 h 5,3 km/h (1 Bft)
21.03.2010 09:00 17,0 C 10,4 C 0,0 UV-I 0,0 C 60 % 89 % 0 % 1010,5 hPa 0,1 l/m 9,9 km/h (2 Bft) 0,00 h 7,7 km/h (2 Bft)
21.03.2010 10:00 16,9 C 10,2 C 0,9 UV-I 0,0 C 60 % 91 % 1 % 1011,7 hPa 0,0 l/m 8,6 km/h (2 Bft) 0,00 h 7,6 km/h (2 Bft)
21.03.2010 11:00 17,0 C 10,6 C 1,0 UV-I 0,2 C 61 % 91 % 7 % 1012,5 hPa 0,0 l/m 8,9 km/h (2 Bft) 0,00 h 6,9 km/h (2 Bft)
21.03.2010 12:00 17,1 C 10,6 C 0,5 UV-I 0,0 C 60 % 91 % 0 % 1013,6 hPa 0,5 l/m 8,4 km/h (2 Bft) 0,00 h 6,3 km/h (2 Bft)
21.03.2010 13:00 16,9 C 10,5 C 0,3 UV-I 0,0 C 61 % 92 % 0 % 1014,8 hPa 0,8 l/m 4,5 km/h (1 Bft) 0,00 h 3,6 km/h (1 Bft)
21.03.2010 14:00 16,8 C 10,0 C 0,1 UV-I 0,0 C 61 % 92 % 0 % 1015,6 hPa 0,4 l/m 4,6 km/h (1 Bft) 0,00 h 4,5 km/h (1 Bft)
21.03.2010 15:00 16,7 C 9,4 C 0,1 UV-I 0,0 C 61 % 92 % 0 % 1016,9 hPa 0,3 l/m 5,3 km/h (1 Bft) 0,00 h 4,4 km/h (1 Bft)
21.03.2010 16:00 16,7 C 9,3 C 0,2 UV-I 0,0 C 61 % 92 % 0 % 1017,8 hPa 0,2 l/m 1,9 km/h (1 Bft) 0,00 h 1,5 km/h (1 Bft)
21.03.2010 17:00 16,6 C 9,5 C 0,0 UV-I 0,0 C 61 % 92 % 0 % 1018,7 hPa 0,2 l/m 0,6 km/h (0 Bft) 0,00 h 0,8 km/h (0 Bft)
21.03.2010 18:00 16,6 C 9,5 C 0,0 UV-I 0,0 C 61 % 92 % 0 % 1019,6 hPa 0,1 l/m 0,6 km/h (0 Bft) 0,00 h 0,8 km/h (0 Bft)
21.03.2010 19:00 16,5 C 9,3 C 0,0 UV-I 0,0 C 61 % 92 % 0 % 1020,4 hPa 0,0 l/m 1,7 km/h (1 Bft) 0,00 h 2,0 km/h (1 Bft)
21.03.2010 20:00 16,4 C 8,9 C 0,0 UV-I 0,0 C 61 % 92 % 0 % 1020,9 hPa 0,0 l/m 0,8 km/h (0 Bft) 0,00 h 0,8 km/h (0 Bft)
21.03.2010 21:00 16,2 C 8,3 C 0,0 UV-I 0,0 C 61 % 93 % 0 % 1021,7 hPa 0,0 l/m 0,4 km/h (0 Bft) 0,00 h 0,3 km/h (0 Bft)
21.03.2010 22:00 16,0 C 7,7 C 0,0 UV-I 0,0 C 61 % 93 % 0 % 1022,0 hPa 0,0 l/m 0,3 km/h (0 Bft) 0,00 h 0,4 km/h (0 Bft)
21.03.2010 23:00 15,9 C 7,3 C 0,0 UV-I 0,0 C 61 % 93 % 0 % 1022,3 hPa 0,1 l/m 0,0 km/h (0 Bft) 0,00 h 0,0 km/h (0 Bft)
Min-Datum _ 15.03.10 17.03.10 15.03.10 15.03.10 18.03.10 18.03.10 15.03.10 21.03.10 - 16.03.10 - 15.03.10
_ Min-Zeit 00:02 05:42 00:00 00:00 15:18 15:36 00:00 03:32 - 18:16 - 00:14
Minimum _ 12,6 C 3,3 C 0,0 UV-I 0,0 C 41 % 35 % 0 % 1006,1 hPa - 0,0 km/h (0 Bft) - 0,0 km/h (0 Bft)
Max-Datum _ 19.03.10 18.03.10 19.03.10 18.03.10 20.03.10 16.03.10 15.03.10 16.03.10 21.03.10 20.03.10 15.03.10 20.03.10
_ Max-Zeit 15:08 15:02 12:28 09:42 10:44 00:28 10:36 14:12 04:19 16:58 10:34 16:34
Maximum _ 19,1 C 20,8 C 11,0 UV-I 8,2 C 63 % 94 % 100 % 1027,8 hPa 5,4 l/m 20,1 km/h
NO (4 Bft)
0,03 h 35,4 km/h
NO (5 Bft)
Durchschnitt _ 15,6 C 10,5 C 0,9 UV-I 0,7 C 53 % 77 % 15 % 1018,6 hPa #21,4 l/m 6,1 km/h (2 Bft) #12:25 h 5,3 km/h (1 Bft)
© 2012 W. Hausmann